EJA823 KSAN-KDEN
Flight info
| Callsign | EJA823 |
|---|---|
| Flight time | 2h 11m |
| Altitude | 45000 |
| Route | CLSSY3 MTBAL EED J236 TBC CRUDD TBARR4 |
| Aircraft | C700/M-SBDGHM1RWXY/LB2 |
Departure
| Time | 2026-04-25 23:04 |
|---|---|
| Airport | San Diego International Airport (KSAN) |
Arrival
| Time | 2026-04-26 01:16 |
|---|---|
| Airport | Denver International Airport (KDEN) |
| Time | Latitude | Longitude | Altitude | Speed | Heading |
|---|---|---|---|---|---|
| 2026-04-25 22:46 | 32.73330 | -117.17821 | 23 ft | 0 kts | 147° |
| 2026-04-25 22:59 | 32.73326 | -117.17821 | 24 ft | 1 kts | 188° |
| 2026-04-25 23:00 | 32.73326 | -117.17832 | 25 ft | 3 kts | 286° |
| 2026-04-25 23:00 | 32.73355 | -117.17870 | 19 ft | 9 kts | 302° |
| 2026-04-25 23:00 | 32.73364 | -117.17895 | 26 ft | 4 kts | 293° |
| 2026-04-25 23:00 | 32.73348 | -117.17949 | 27 ft | 11 kts | 207° |
| 2026-04-25 23:01 | 32.73298 | -117.17926 | 26 ft | 8 kts | 107° |
| 2026-04-25 23:01 | 32.73272 | -117.17826 | 25 ft | 15 kts | 105° |
| 2026-04-25 23:01 | 32.73251 | -117.17743 | 25 ft | 8 kts | 107° |
| 2026-04-25 23:01 | 32.73224 | -117.17682 | 22 ft | 6 kts | 146° |
| 2026-04-25 23:02 | 32.73187 | -117.17658 | 23 ft | 11 kts | 157° |
| 2026-04-25 23:02 | 32.73148 | -117.17652 | 22 ft | 4 kts | 197° |
| 2026-04-25 23:02 | 32.73127 | -117.17660 | 22 ft | 0 kts | 197° |
| 2026-04-25 23:03 | 32.73102 | -117.17669 | 22 ft | 9 kts | 197° |
| 2026-04-25 23:03 | 32.73061 | -117.17745 | 21 ft | 15 kts | 280° |
| 2026-04-25 23:03 | 32.73149 | -117.18116 | 22 ft | 92 kts | 286° |
| 2026-04-25 23:04 | 32.73411 | -117.19166 | 225 ft | 161 kts | 285° |
| 2026-04-25 23:04 | 32.73632 | -117.20090 | 693 ft | 190 kts | 284° |
| 2026-04-25 23:04 | 32.74175 | -117.22383 | 1932 ft | 237 kts | 284° |
| 2026-04-25 23:04 | 32.74643 | -117.24293 | 2949 ft | 235 kts | 284° |
| 2026-04-25 23:05 | 32.75061 | -117.25988 | 3730 ft | 195 kts | 284° |
| 2026-04-25 23:05 | 32.75409 | -117.27426 | 4261 ft | 170 kts | 284° |
| 2026-04-25 23:05 | 32.75717 | -117.28713 | 4629 ft | 155 kts | 284° |
| 2026-04-25 23:05 | 32.76001 | -117.29903 | 4869 ft | 146 kts | 284° |
| 2026-04-25 23:06 | 32.76291 | -117.31109 | 4811 ft | 158 kts | 285° |
| 2026-04-25 23:06 | 32.76438 | -117.32407 | 4789 ft | 164 kts | 257° |
| 2026-04-25 23:06 | 32.75850 | -117.33542 | 5017 ft | 155 kts | 221° |
| 2026-04-25 23:06 | 32.74938 | -117.34022 | 5479 ft | 143 kts | 189° |
| 2026-04-25 23:07 | 32.73855 | -117.33778 | 6085 ft | 178 kts | 154° |
| 2026-04-25 23:07 | 32.72744 | -117.32844 | 6591 ft | 212 kts | 147° |
| 2026-04-25 23:07 | 32.71502 | -117.31754 | 6651 ft | 229 kts | 147° |
| 2026-04-25 23:07 | 32.70213 | -117.30641 | 6554 ft | 228 kts | 147° |
| 2026-04-25 23:08 | 32.68987 | -117.29586 | 6892 ft | 203 kts | 148° |
| 2026-04-25 23:08 | 32.67840 | -117.28604 | 7819 ft | 213 kts | 150° |
| 2026-04-25 23:08 | 32.66617 | -117.27562 | 8803 ft | 217 kts | 151° |
| 2026-04-25 23:08 | 32.65357 | -117.26484 | 9807 ft | 227 kts | 152° |
| 2026-04-25 23:09 | 32.64201 | -117.25162 | 10718 ft | 239 kts | 137° |
| 2026-04-25 23:09 | 32.63285 | -117.23346 | 11232 ft | 272 kts | 117° |
| 2026-04-25 23:09 | 32.62834 | -117.21212 | 12727 ft | 265 kts | 106° |
| 2026-04-25 23:09 | 32.62639 | -117.19016 | 13953 ft | 272 kts | 105° |
| 2026-04-25 23:10 | 32.62433 | -117.16752 | 14960 ft | 280 kts | 104° |
| 2026-04-25 23:10 | 32.62216 | -117.14399 | 15914 ft | 289 kts | 104° |
| 2026-04-25 23:10 | 32.62028 | -117.12025 | 16833 ft | 299 kts | 99° |
| 2026-04-25 23:10 | 32.62256 | -117.09507 | 17757 ft | 314 kts | 81° |
| 2026-04-25 23:11 | 32.62975 | -117.07018 | 18610 ft | 324 kts | 70° |
| 2026-04-25 23:11 | 32.63815 | -117.04510 | 19403 ft | 328 kts | 71° |
| 2026-04-25 23:11 | 32.64644 | -117.01963 | 20167 ft | 333 kts | 72° |
| 2026-04-25 23:11 | 32.65484 | -116.99370 | 20890 ft | 338 kts | 72° |
| 2026-04-25 23:12 | 32.66303 | -116.96734 | 21608 ft | 341 kts | 78° |
| 2026-04-25 23:12 | 32.66675 | -116.94002 | 22331 ft | 338 kts | 94° |
| 2026-04-25 23:12 | 32.66738 | -116.91206 | 23073 ft | 340 kts | 96° |
| 2026-04-25 23:12 | 32.66801 | -116.88377 | 23765 ft | 345 kts | 96° |
| 2026-04-25 23:13 | 32.66877 | -116.85512 | 24408 ft | 348 kts | 95° |
| 2026-04-25 23:13 | 32.67043 | -116.82617 | 25070 ft | 357 kts | 86° |
| 2026-04-25 23:13 | 32.67720 | -116.79739 | 25741 ft | 367 kts | 71° |
| 2026-04-25 23:13 | 32.68900 | -116.77057 | 26353 ft | 374 kts | 56° |
| 2026-04-25 23:14 | 32.70571 | -116.74688 | 26943 ft | 376 kts | 40° |
| 2026-04-25 23:14 | 32.72642 | -116.72799 | 27539 ft | 374 kts | 25° |
| 2026-04-25 23:14 | 32.74970 | -116.71480 | 28133 ft | 370 kts | 14° |
| 2026-04-25 23:14 | 32.77371 | -116.70319 | 28723 ft | 374 kts | 15° |
| 2026-04-25 23:15 | 32.79792 | -116.69127 | 29324 ft | 378 kts | 15° |
| 2026-04-25 23:15 | 32.82238 | -116.67928 | 29907 ft | 382 kts | 15° |
| 2026-04-25 23:15 | 32.84711 | -116.66719 | 30408 ft | 386 kts | 14° |
| 2026-04-25 23:15 | 32.87224 | -116.65490 | 30868 ft | 391 kts | 14° |
| 2026-04-25 23:16 | 32.89720 | -116.64272 | 31293 ft | 395 kts | 14° |
| 2026-04-25 23:16 | 32.92277 | -116.63008 | 31729 ft | 399 kts | 14° |
| 2026-04-25 23:16 | 32.94862 | -116.61734 | 32173 ft | 403 kts | 14° |
| 2026-04-25 23:16 | 32.97473 | -116.60459 | 32574 ft | 408 kts | 14° |
| 2026-04-25 23:17 | 33.00114 | -116.59154 | 32958 ft | 412 kts | 14° |
| 2026-04-25 23:17 | 33.02758 | -116.57788 | 33399 ft | 416 kts | 15° |
| 2026-04-25 23:17 | 33.05429 | -116.56391 | 33703 ft | 420 kts | 14° |
| 2026-04-25 23:17 | 33.08088 | -116.55025 | 34089 ft | 420 kts | 14° |
| 2026-04-25 23:18 | 33.10778 | -116.53620 | 34424 ft | 423 kts | 15° |
| 2026-04-25 23:18 | 33.13479 | -116.52197 | 34759 ft | 425 kts | 15° |
| 2026-04-25 23:18 | 33.16190 | -116.50776 | 35107 ft | 426 kts | 15° |
| 2026-04-25 23:18 | 33.18913 | -116.49353 | 35417 ft | 428 kts | 15° |
| 2026-04-25 23:19 | 33.21646 | -116.47927 | 35681 ft | 430 kts | 15° |
| 2026-04-25 23:19 | 33.24362 | -116.46503 | 35974 ft | 432 kts | 15° |
| 2026-04-25 23:19 | 33.27121 | -116.45050 | 36272 ft | 434 kts | 15° |
| 2026-04-25 23:19 | 33.29877 | -116.43602 | 36948 ft | 431 kts | 14° |
| 2026-04-25 23:20 | 33.35447 | -116.40666 | 37222 ft | 439 kts | 16° |
| 2026-04-25 23:20 | 33.38159 | -116.38860 | 37353 ft | 453 kts | 28° |
| 2026-04-25 23:20 | 33.40627 | -116.36483 | 37510 ft | 460 kts | 40° |
| 2026-04-25 23:21 | 33.42775 | -116.33596 | 37731 ft | 465 kts | 52° |
| 2026-04-25 23:21 | 33.44663 | -116.30444 | 37929 ft | 467 kts | 53° |
| 2026-04-25 23:21 | 33.46550 | -116.27277 | 38131 ft | 467 kts | 53° |
| 2026-04-25 23:21 | 33.48428 | -116.24157 | 38200 ft | 470 kts | 52° |
| 2026-04-25 23:22 | 33.50348 | -116.20972 | 38337 ft | 471 kts | 53° |
| 2026-04-25 23:22 | 33.52270 | -116.17758 | 38490 ft | 472 kts | 53° |
| 2026-04-25 23:23 | 33.58043 | -116.08079 | 38821 ft | 476 kts | 53° |
| 2026-04-25 23:23 | 33.59947 | -116.04887 | 38945 ft | 477 kts | 53° |
| 2026-04-25 23:23 | 33.61790 | -116.01562 | 39064 ft | 478 kts | 57° |
| 2026-04-25 23:23 | 33.63614 | -115.98203 | 39179 ft | 479 kts | 56° |
| 2026-04-25 23:24 | 33.65440 | -115.94870 | 39335 ft | 478 kts | 56° |
| 2026-04-25 23:24 | 33.69091 | -115.88163 | 39484 ft | 481 kts | 56° |
| 2026-04-25 23:24 | 33.70921 | -115.84790 | 39589 ft | 481 kts | 56° |
| 2026-04-25 23:25 | 33.72754 | -115.81416 | 39660 ft | 482 kts | 56° |
| 2026-04-25 23:25 | 33.74563 | -115.78084 | 39773 ft | 482 kts | 56° |
| 2026-04-25 23:25 | 33.76399 | -115.74699 | 39844 ft | 483 kts | 56° |
| 2026-04-25 23:26 | 33.80082 | -115.67886 | 40000 ft | 484 kts | 56° |
| 2026-04-25 23:26 | 33.83740 | -115.61123 | 40116 ft | 485 kts | 56° |
| 2026-04-25 23:27 | 33.87427 | -115.54285 | 40233 ft | 487 kts | 56° |
| 2026-04-25 23:27 | 33.90488 | -115.48595 | 40367 ft | 486 kts | 56° |
| 2026-04-25 23:28 | 33.94174 | -115.41739 | 40453 ft | 489 kts | 56° |
| 2026-04-25 23:28 | 33.97875 | -115.34836 | 40614 ft | 489 kts | 56° |
| 2026-04-25 23:29 | 34.01564 | -115.27948 | 40702 ft | 490 kts | 56° |
| 2026-04-25 23:29 | 34.03387 | -115.24534 | 40907 ft | 486 kts | 56° |
| 2026-04-25 23:29 | 34.05211 | -115.21118 | 41131 ft | 482 kts | 56° |
| 2026-04-25 23:29 | 34.07023 | -115.17726 | 41348 ft | 478 kts | 56° |
| 2026-04-25 23:30 | 34.08812 | -115.14368 | 41561 ft | 473 kts | 56° |
| 2026-04-25 23:30 | 34.10587 | -115.11033 | 41784 ft | 469 kts | 56° |
| 2026-04-25 23:30 | 34.12345 | -115.07730 | 42007 ft | 465 kts | 56° |
| 2026-04-25 23:30 | 34.14084 | -115.04459 | 42227 ft | 460 kts | 56° |
| 2026-04-25 23:31 | 34.15785 | -115.01257 | 42449 ft | 456 kts | 55° |
| 2026-04-25 23:31 | 34.17493 | -114.98036 | 42667 ft | 452 kts | 55° |
| 2026-04-25 23:31 | 34.19182 | -114.94851 | 42900 ft | 447 kts | 55° |
| 2026-04-25 23:31 | 34.20854 | -114.91696 | 43120 ft | 443 kts | 55° |
| 2026-04-25 23:32 | 34.22487 | -114.88609 | 43352 ft | 438 kts | 55° |
| 2026-04-25 23:32 | 34.24118 | -114.85524 | 43587 ft | 434 kts | 55° |
| 2026-04-25 23:32 | 34.25736 | -114.82458 | 43819 ft | 429 kts | 55° |
| 2026-04-25 23:32 | 34.27328 | -114.79446 | 44051 ft | 423 kts | 54° |
| 2026-04-25 23:33 | 34.28902 | -114.76465 | 44285 ft | 417 kts | 54° |
| 2026-04-25 23:33 | 34.30453 | -114.73537 | 44509 ft | 410 kts | 55° |
| 2026-04-25 23:33 | 34.31967 | -114.70637 | 44683 ft | 405 kts | 55° |
| 2026-04-25 23:34 | 34.34982 | -114.64913 | 44724 ft | 406 kts | 54° |
| 2026-04-25 23:34 | 34.38018 | -114.59131 | 44718 ft | 407 kts | 55° |
| 2026-04-25 23:35 | 34.41064 | -114.53319 | 44725 ft | 409 kts | 55° |
| 2026-04-25 23:35 | 34.44122 | -114.47477 | 44726 ft | 411 kts | 55° |
| 2026-04-25 23:36 | 34.47175 | -114.41633 | 44723 ft | 413 kts | 55° |
| 2026-04-25 23:36 | 34.50257 | -114.35726 | 44775 ft | 415 kts | 54° |
| 2026-04-25 23:37 | 34.53353 | -114.29782 | 44775 ft | 417 kts | 55° |
| 2026-04-25 23:37 | 34.56442 | -114.23840 | 44770 ft | 420 kts | 55° |
| 2026-04-25 23:38 | 34.59568 | -114.17815 | 44763 ft | 421 kts | 55° |
| 2026-04-25 23:38 | 34.62695 | -114.11784 | 44754 ft | 423 kts | 55° |
| 2026-04-25 23:39 | 34.65830 | -114.05719 | 44745 ft | 424 kts | 55° |
| 2026-04-25 23:39 | 34.68979 | -113.99624 | 44740 ft | 426 kts | 55° |
| 2026-04-25 23:40 | 34.71577 | -113.94583 | 44742 ft | 428 kts | 55° |
| 2026-04-25 23:40 | 34.74743 | -113.88433 | 44740 ft | 430 kts | 55° |
| 2026-04-25 23:41 | 34.77931 | -113.82235 | 44730 ft | 431 kts | 55° |
| 2026-04-25 23:41 | 34.81095 | -113.76053 | 44731 ft | 432 kts | 55° |
| 2026-04-25 23:42 | 34.84282 | -113.69841 | 44731 ft | 433 kts | 55° |
| 2026-04-25 23:42 | 34.87470 | -113.63597 | 44744 ft | 434 kts | 55° |
| 2026-04-25 23:43 | 34.90665 | -113.57340 | 44753 ft | 436 kts | 55° |
| 2026-04-25 23:43 | 34.93873 | -113.51038 | 44754 ft | 438 kts | 55° |
| 2026-04-25 23:44 | 34.97065 | -113.44765 | 44749 ft | 439 kts | 56° |
| 2026-04-25 23:44 | 35.00284 | -113.38419 | 44747 ft | 440 kts | 55° |
| 2026-04-25 23:45 | 35.03504 | -113.32061 | 44757 ft | 441 kts | 55° |
| 2026-04-25 23:45 | 35.06725 | -113.25690 | 44755 ft | 440 kts | 55° |
| 2026-04-25 23:46 | 35.09925 | -113.19352 | 44774 ft | 441 kts | 55° |
| 2026-04-25 23:46 | 35.13140 | -113.12969 | 44777 ft | 441 kts | 55° |
| 2026-04-25 23:47 | 35.16354 | -113.06578 | 44781 ft | 441 kts | 55° |
| 2026-04-25 23:47 | 35.19567 | -113.00183 | 44782 ft | 441 kts | 55° |
| 2026-04-25 23:48 | 35.22764 | -112.93793 | 44814 ft | 440 kts | 55° |
| 2026-04-25 23:48 | 35.25952 | -112.87425 | 44802 ft | 441 kts | 55° |
| 2026-04-25 23:49 | 35.29153 | -112.81010 | 44811 ft | 441 kts | 55° |
| 2026-04-25 23:49 | 35.32355 | -112.74584 | 44809 ft | 442 kts | 55° |
| 2026-04-25 23:50 | 35.35532 | -112.68199 | 44822 ft | 442 kts | 55° |
| 2026-04-25 23:50 | 35.38728 | -112.61759 | 44823 ft | 442 kts | 55° |
| 2026-04-25 23:51 | 35.41928 | -112.55301 | 44831 ft | 442 kts | 55° |
| 2026-04-25 23:51 | 35.45103 | -112.48882 | 44829 ft | 442 kts | 55° |
| 2026-04-25 23:52 | 35.48290 | -112.42426 | 44836 ft | 442 kts | 55° |
| 2026-04-25 23:52 | 35.51472 | -112.35970 | 44837 ft | 442 kts | 55° |
| 2026-04-25 23:53 | 35.54653 | -112.29500 | 44841 ft | 442 kts | 55° |
| 2026-04-25 23:53 | 35.57821 | -112.23050 | 44841 ft | 442 kts | 55° |
| 2026-04-25 23:54 | 35.60993 | -112.16575 | 44876 ft | 442 kts | 55° |
| 2026-04-25 23:54 | 35.64166 | -112.10088 | 44853 ft | 442 kts | 55° |
| 2026-04-25 23:55 | 35.67336 | -112.03593 | 44836 ft | 442 kts | 56° |
| 2026-04-25 23:55 | 35.70503 | -111.97091 | 44836 ft | 442 kts | 56° |
| 2026-04-25 23:56 | 35.73639 | -111.90644 | 44809 ft | 442 kts | 56° |
| 2026-04-25 23:56 | 35.76797 | -111.84137 | 44808 ft | 442 kts | 56° |
| 2026-04-25 23:57 | 35.79953 | -111.77624 | 44771 ft | 442 kts | 55° |
| 2026-04-25 23:57 | 35.83100 | -111.71114 | 44771 ft | 442 kts | 55° |
| 2026-04-25 23:58 | 35.86248 | -111.64591 | 44775 ft | 442 kts | 55° |
| 2026-04-25 23:58 | 35.89367 | -111.58116 | 44775 ft | 442 kts | 55° |
| 2026-04-25 23:59 | 35.92512 | -111.51578 | 44759 ft | 442 kts | 55° |
| 2026-04-25 23:59 | 35.95644 | -111.45043 | 44756 ft | 442 kts | 56° |
| 2026-04-26 00:00 | 35.98776 | -111.38509 | 44748 ft | 442 kts | 56° |
| 2026-04-26 00:00 | 36.01907 | -111.31958 | 44756 ft | 442 kts | 56° |
| 2026-04-26 00:01 | 36.05013 | -111.25448 | 44752 ft | 442 kts | 56° |
| 2026-04-26 00:01 | 36.08136 | -111.18889 | 44753 ft | 442 kts | 56° |
| 2026-04-26 00:02 | 36.11250 | -111.12336 | 44752 ft | 442 kts | 56° |
| 2026-04-26 00:02 | 36.14360 | -111.05780 | 44753 ft | 442 kts | 56° |
| 2026-04-26 00:03 | 36.17469 | -110.99210 | 44747 ft | 441 kts | 56° |
| 2026-04-26 00:03 | 36.20549 | -110.92692 | 44746 ft | 441 kts | 56° |
| 2026-04-26 00:04 | 36.23644 | -110.86129 | 44728 ft | 441 kts | 56° |
| 2026-04-26 00:04 | 36.26735 | -110.79561 | 44720 ft | 441 kts | 56° |
| 2026-04-26 00:05 | 36.29825 | -110.72985 | 44713 ft | 440 kts | 56° |
| 2026-04-26 00:05 | 36.32882 | -110.66461 | 44713 ft | 440 kts | 56° |
| 2026-04-26 00:06 | 36.35954 | -110.59898 | 44701 ft | 439 kts | 56° |
| 2026-04-26 00:06 | 36.39017 | -110.53338 | 44709 ft | 439 kts | 56° |
| 2026-04-26 00:07 | 36.42083 | -110.46756 | 44701 ft | 439 kts | 56° |
| 2026-04-26 00:07 | 36.45118 | -110.40236 | 44699 ft | 438 kts | 56° |
| 2026-04-26 00:08 | 36.48169 | -110.33659 | 44689 ft | 438 kts | 56° |
| 2026-04-26 00:08 | 36.51212 | -110.27097 | 44692 ft | 438 kts | 56° |
| 2026-04-26 00:09 | 36.54246 | -110.20532 | 44685 ft | 438 kts | 56° |
| 2026-04-26 00:09 | 36.57272 | -110.13976 | 44681 ft | 436 kts | 56° |
| 2026-04-26 00:10 | 36.60272 | -110.07463 | 44679 ft | 435 kts | 56° |
| 2026-04-26 00:10 | 36.63279 | -110.00921 | 44669 ft | 435 kts | 56° |
| 2026-04-26 00:11 | 36.66279 | -109.94382 | 44671 ft | 434 kts | 56° |
| 2026-04-26 00:11 | 36.69273 | -109.87843 | 44655 ft | 434 kts | 56° |
| 2026-04-26 00:12 | 36.72258 | -109.81312 | 44654 ft | 433 kts | 56° |
| 2026-04-26 00:12 | 36.75238 | -109.74777 | 44659 ft | 433 kts | 56° |
| 2026-04-26 00:13 | 36.78211 | -109.68245 | 44663 ft | 432 kts | 56° |
| 2026-04-26 00:13 | 36.81168 | -109.61738 | 44663 ft | 432 kts | 56° |
| 2026-04-26 00:14 | 36.83632 | -109.56303 | 44657 ft | 432 kts | 56° |
| 2026-04-26 00:14 | 36.87070 | -109.48707 | 44659 ft | 432 kts | 56° |
| 2026-04-26 00:15 | 36.90021 | -109.42172 | 44658 ft | 431 kts | 56° |
| 2026-04-26 00:15 | 36.92472 | -109.36734 | 44662 ft | 431 kts | 56° |
| 2026-04-26 00:16 | 36.95411 | -109.30204 | 44658 ft | 431 kts | 56° |
| 2026-04-26 00:16 | 36.98342 | -109.23676 | 44660 ft | 430 kts | 56° |
| 2026-04-26 00:17 | 37.01270 | -109.17143 | 44661 ft | 430 kts | 56° |
| 2026-04-26 00:17 | 37.04181 | -109.10633 | 44659 ft | 430 kts | 56° |
| 2026-04-26 00:18 | 37.07100 | -109.04095 | 44666 ft | 430 kts | 56° |
| 2026-04-26 00:18 | 37.10015 | -108.97552 | 44677 ft | 429 kts | 56° |
| 2026-04-26 00:19 | 37.12924 | -108.91011 | 44690 ft | 430 kts | 57° |
| 2026-04-26 00:19 | 37.15829 | -108.84462 | 44710 ft | 429 kts | 57° |
| 2026-04-26 00:20 | 37.18714 | -108.77947 | 44703 ft | 429 kts | 57° |
| 2026-04-26 00:20 | 37.21609 | -108.71399 | 44702 ft | 428 kts | 57° |
| 2026-04-26 00:21 | 37.24489 | -108.64865 | 44727 ft | 427 kts | 57° |
| 2026-04-26 00:21 | 37.27368 | -108.58327 | 44880 ft | 427 kts | 57° |
| 2026-04-26 00:22 | 37.30228 | -108.51814 | 44877 ft | 427 kts | 57° |
| 2026-04-26 00:22 | 37.33100 | -108.45266 | 44853 ft | 427 kts | 57° |
| 2026-04-26 00:23 | 37.35969 | -108.38707 | 44824 ft | 427 kts | 57° |
| 2026-04-26 00:23 | 37.38811 | -108.32198 | 44798 ft | 427 kts | 57° |
| 2026-04-26 00:24 | 37.41666 | -108.25645 | 44783 ft | 427 kts | 57° |
| 2026-04-26 00:24 | 37.44518 | -108.19087 | 44767 ft | 426 kts | 57° |
| 2026-04-26 00:25 | 37.47366 | -108.12525 | 44772 ft | 426 kts | 57° |
| 2026-04-26 00:25 | 37.48775 | -108.09276 | 43661 ft | 436 kts | 57° |
| 2026-04-26 00:25 | 37.50281 | -108.05800 | 41754 ft | 465 kts | 58° |
| 2026-04-26 00:25 | 37.51845 | -108.02192 | 40908 ft | 467 kts | 58° |
| 2026-04-26 00:26 | 37.53392 | -107.98604 | 40282 ft | 462 kts | 58° |
| 2026-04-26 00:26 | 37.54906 | -107.95086 | 39281 ft | 465 kts | 58° |
| 2026-04-26 00:26 | 37.56437 | -107.91532 | 38054 ft | 454 kts | 58° |
| 2026-04-26 00:26 | 37.57916 | -107.88083 | 36719 ft | 440 kts | 58° |
| 2026-04-26 00:27 | 37.59351 | -107.84752 | 35458 ft | 427 kts | 59° |
| 2026-04-26 00:27 | 37.60750 | -107.81502 | 34263 ft | 415 kts | 60° |
| 2026-04-26 00:27 | 37.62109 | -107.78338 | 33019 ft | 406 kts | 60° |
| 2026-04-26 00:27 | 37.63442 | -107.75235 | 31718 ft | 398 kts | 60° |
| 2026-04-26 00:28 | 37.64743 | -107.72186 | 30492 ft | 391 kts | 60° |
| 2026-04-26 00:28 | 37.66018 | -107.69208 | 29207 ft | 381 kts | 60° |
| 2026-04-26 00:28 | 37.67259 | -107.66305 | 27883 ft | 369 kts | 60° |
| 2026-04-26 00:28 | 37.68470 | -107.63474 | 26857 ft | 358 kts | 60° |
| 2026-04-26 00:29 | 37.69586 | -107.60837 | 26811 ft | 328 kts | 60° |
| 2026-04-26 00:29 | 37.70640 | -107.58372 | 26826 ft | 319 kts | 59° |
| 2026-04-26 00:29 | 37.71684 | -107.55934 | 26404 ft | 311 kts | 59° |
| 2026-04-26 00:29 | 37.72745 | -107.53459 | 24829 ft | 331 kts | 59° |
| 2026-04-26 00:30 | 37.73849 | -107.50859 | 23890 ft | 327 kts | 59° |
| 2026-04-26 00:30 | 37.74931 | -107.48491 | 23823 ft | 300 kts | 49° |
| 2026-04-26 00:30 | 37.76312 | -107.46572 | 23831 ft | 290 kts | 36° |
| 2026-04-26 00:30 | 37.77793 | -107.44853 | 23840 ft | 289 kts | 37° |
| 2026-04-26 00:31 | 37.79256 | -107.43112 | 23834 ft | 288 kts | 37° |
| 2026-04-26 00:31 | 37.80683 | -107.41417 | 23839 ft | 283 kts | 36° |
| 2026-04-26 00:31 | 37.82125 | -107.39740 | 23839 ft | 280 kts | 36° |
| 2026-04-26 00:31 | 37.83540 | -107.38065 | 23750 ft | 275 kts | 37° |
| 2026-04-26 00:32 | 37.84945 | -107.36401 | 22501 ft | 285 kts | 37° |
| 2026-04-26 00:32 | 37.86463 | -107.34624 | 20731 ft | 307 kts | 39° |
| 2026-04-26 00:32 | 37.89617 | -107.30886 | 18145 ft | 304 kts | 41° |
| 2026-04-26 00:33 | 37.91145 | -107.29062 | 16806 ft | 298 kts | 41° |
| 2026-04-26 00:33 | 37.92660 | -107.27284 | 15536 ft | 295 kts | 41° |
| 2026-04-26 00:33 | 37.94087 | -107.25605 | 15310 ft | 269 kts | 41° |
| 2026-04-26 00:33 | 37.95443 | -107.23977 | 15382 ft | 268 kts | 42° |
| 2026-04-26 00:34 | 37.96812 | -107.22360 | 15469 ft | 270 kts | 41° |
| 2026-04-26 00:34 | 37.98191 | -107.20738 | 15562 ft | 270 kts | 41° |
| 2026-04-26 00:34 | 37.99561 | -107.19109 | 15647 ft | 269 kts | 42° |
| 2026-04-26 00:34 | 38.00924 | -107.17478 | 15725 ft | 269 kts | 42° |
| 2026-04-26 00:35 | 38.02288 | -107.15861 | 15797 ft | 268 kts | 42° |
| 2026-04-26 00:35 | 38.03642 | -107.14244 | 15787 ft | 272 kts | 41° |
| 2026-04-26 00:35 | 38.05030 | -107.12606 | 15798 ft | 273 kts | 41° |
| 2026-04-26 00:35 | 38.06431 | -107.10950 | 15808 ft | 275 kts | 42° |
| 2026-04-26 00:36 | 38.07829 | -107.09268 | 15792 ft | 278 kts | 41° |
| 2026-04-26 00:36 | 38.09239 | -107.07570 | 15798 ft | 279 kts | 42° |
| 2026-04-26 00:36 | 38.10658 | -107.05899 | 15799 ft | 277 kts | 41° |
| 2026-04-26 00:36 | 38.12051 | -107.04251 | 15802 ft | 276 kts | 40° |
| 2026-04-26 00:37 | 38.13451 | -107.02568 | 15794 ft | 278 kts | 41° |
| 2026-04-26 00:37 | 38.14839 | -107.00871 | 15783 ft | 277 kts | 46° |
| 2026-04-26 00:37 | 38.16078 | -106.98993 | 15781 ft | 277 kts | 50° |
| 2026-04-26 00:37 | 38.17304 | -106.97105 | 15782 ft | 277 kts | 49° |
| 2026-04-26 00:38 | 38.18546 | -106.95236 | 15785 ft | 276 kts | 49° |
| 2026-04-26 00:38 | 38.19787 | -106.93364 | 15793 ft | 277 kts | 49° |
| 2026-04-26 00:38 | 38.21024 | -106.91483 | 15798 ft | 277 kts | 49° |
| 2026-04-26 00:38 | 38.22263 | -106.89600 | 15803 ft | 277 kts | 49° |
| 2026-04-26 00:39 | 38.23480 | -106.87745 | 15799 ft | 276 kts | 49° |
| 2026-04-26 00:39 | 38.24710 | -106.85870 | 15768 ft | 275 kts | 49° |
| 2026-04-26 00:39 | 38.25947 | -106.84007 | 15767 ft | 274 kts | 48° |
| 2026-04-26 00:39 | 38.27175 | -106.82147 | 15761 ft | 275 kts | 49° |
| 2026-04-26 00:40 | 38.28395 | -106.80272 | 15762 ft | 275 kts | 49° |
| 2026-04-26 00:40 | 38.29619 | -106.78409 | 15767 ft | 274 kts | 49° |
| 2026-04-26 00:40 | 38.30846 | -106.76540 | 15754 ft | 274 kts | 48° |
| 2026-04-26 00:40 | 38.32072 | -106.74681 | 15768 ft | 274 kts | 49° |
| 2026-04-26 00:41 | 38.33292 | -106.72803 | 15761 ft | 276 kts | 49° |
| 2026-04-26 00:41 | 38.34509 | -106.70943 | 15761 ft | 276 kts | 49° |
| 2026-04-26 00:41 | 38.35739 | -106.69069 | 15761 ft | 275 kts | 48° |
| 2026-04-26 00:41 | 38.36965 | -106.67194 | 15762 ft | 274 kts | 48° |
| 2026-04-26 00:42 | 38.38190 | -106.65323 | 15775 ft | 276 kts | 49° |
| 2026-04-26 00:42 | 38.39424 | -106.63436 | 15763 ft | 278 kts | 49° |
| 2026-04-26 00:42 | 38.40656 | -106.61542 | 15763 ft | 278 kts | 49° |
| 2026-04-26 00:42 | 38.41893 | -106.59647 | 15764 ft | 278 kts | 49° |
| 2026-04-26 00:43 | 38.43131 | -106.57748 | 15767 ft | 278 kts | 49° |
| 2026-04-26 00:43 | 38.44374 | -106.55845 | 15769 ft | 279 kts | 49° |
| 2026-04-26 00:43 | 38.45601 | -106.53961 | 15771 ft | 279 kts | 49° |
| 2026-04-26 00:43 | 38.46841 | -106.52051 | 15766 ft | 279 kts | 49° |
| 2026-04-26 00:44 | 38.48080 | -106.50146 | 15762 ft | 278 kts | 48° |
| 2026-04-26 00:44 | 38.49319 | -106.48250 | 15768 ft | 277 kts | 49° |
| 2026-04-26 00:44 | 38.50552 | -106.46352 | 15787 ft | 278 kts | 49° |
| 2026-04-26 00:44 | 38.51792 | -106.44451 | 15790 ft | 278 kts | 48° |
| 2026-04-26 00:45 | 38.53010 | -106.42570 | 15784 ft | 278 kts | 50° |
| 2026-04-26 00:45 | 38.54231 | -106.40650 | 15792 ft | 278 kts | 49° |
| 2026-04-26 00:45 | 38.55464 | -106.38756 | 15805 ft | 276 kts | 48° |
| 2026-04-26 00:45 | 38.56707 | -106.36873 | 15817 ft | 277 kts | 48° |
| 2026-04-26 00:46 | 38.57950 | -106.34964 | 15817 ft | 280 kts | 49° |
| 2026-04-26 00:46 | 38.59183 | -106.33055 | 15829 ft | 279 kts | 50° |
| 2026-04-26 00:46 | 38.60403 | -106.31125 | 15831 ft | 277 kts | 49° |
| 2026-04-26 00:46 | 38.61629 | -106.29256 | 15830 ft | 278 kts | 49° |
| 2026-04-26 00:47 | 38.62875 | -106.27355 | 15833 ft | 279 kts | 49° |
| 2026-04-26 00:47 | 38.64104 | -106.25421 | 15826 ft | 277 kts | 51° |
| 2026-04-26 00:47 | 38.65315 | -106.23500 | 15845 ft | 278 kts | 49° |
| 2026-04-26 00:47 | 38.66555 | -106.21616 | 15846 ft | 274 kts | 49° |
| 2026-04-26 00:48 | 38.67780 | -106.19788 | 15856 ft | 273 kts | 49° |
| 2026-04-26 00:48 | 38.68990 | -106.17930 | 15885 ft | 272 kts | 49° |
| 2026-04-26 00:48 | 38.70216 | -106.16089 | 15892 ft | 272 kts | 49° |
| 2026-04-26 00:48 | 38.71426 | -106.14218 | 15906 ft | 273 kts | 49° |
| 2026-04-26 00:49 | 38.72640 | -106.12344 | 15910 ft | 274 kts | 49° |
| 2026-04-26 00:49 | 38.73867 | -106.10471 | 15912 ft | 275 kts | 48° |
| 2026-04-26 00:49 | 38.75097 | -106.08592 | 15914 ft | 275 kts | 48° |
| 2026-04-26 00:49 | 38.76330 | -106.06703 | 15917 ft | 277 kts | 49° |
| 2026-04-26 00:50 | 38.77566 | -106.04803 | 15908 ft | 278 kts | 49° |
| 2026-04-26 00:50 | 38.78793 | -106.02927 | 15906 ft | 279 kts | 48° |
| 2026-04-26 00:50 | 38.80042 | -106.01012 | 15904 ft | 279 kts | 49° |
| 2026-04-26 00:50 | 38.81281 | -105.99094 | 15888 ft | 279 kts | 50° |
| 2026-04-26 00:51 | 38.82518 | -105.97190 | 15889 ft | 278 kts | 49° |
| 2026-04-26 00:51 | 38.83761 | -105.95289 | 15876 ft | 278 kts | 49° |
| 2026-04-26 00:51 | 38.85000 | -105.93387 | 15745 ft | 277 kts | 49° |
| 2026-04-26 00:51 | 38.86221 | -105.91515 | 15738 ft | 276 kts | 50° |
| 2026-04-26 00:52 | 38.87439 | -105.89614 | 15736 ft | 276 kts | 50° |
| 2026-04-26 00:52 | 38.88665 | -105.87725 | 15737 ft | 275 kts | 49° |
| 2026-04-26 00:52 | 38.89891 | -105.85835 | 15735 ft | 275 kts | 50° |
| 2026-04-26 00:52 | 38.91107 | -105.83933 | 15737 ft | 275 kts | 50° |
| 2026-04-26 00:53 | 38.92329 | -105.82025 | 15735 ft | 275 kts | 50° |
| 2026-04-26 00:53 | 38.93548 | -105.80127 | 15735 ft | 275 kts | 50° |
| 2026-04-26 00:53 | 38.94751 | -105.78253 | 15740 ft | 276 kts | 50° |
| 2026-04-26 00:53 | 38.95966 | -105.76353 | 15752 ft | 274 kts | 50° |
| 2026-04-26 00:54 | 38.97184 | -105.74457 | 15749 ft | 274 kts | 50° |
| 2026-04-26 00:54 | 38.98393 | -105.72567 | 15746 ft | 273 kts | 50° |
| 2026-04-26 00:54 | 38.99601 | -105.70676 | 15745 ft | 273 kts | 50° |
| 2026-04-26 00:54 | 39.00806 | -105.68792 | 15744 ft | 273 kts | 50° |
| 2026-04-26 00:55 | 39.02014 | -105.66903 | 15748 ft | 273 kts | 49° |
| 2026-04-26 00:55 | 39.03224 | -105.65023 | 15748 ft | 272 kts | 49° |
| 2026-04-26 00:55 | 39.04424 | -105.63168 | 15765 ft | 272 kts | 49° |
| 2026-04-26 00:55 | 39.05633 | -105.61293 | 15764 ft | 271 kts | 49° |
| 2026-04-26 00:56 | 39.06833 | -105.59421 | 15759 ft | 271 kts | 49° |
| 2026-04-26 00:56 | 39.08037 | -105.57549 | 15760 ft | 271 kts | 49° |
| 2026-04-26 00:56 | 39.09242 | -105.55670 | 15740 ft | 270 kts | 49° |
| 2026-04-26 00:56 | 39.10431 | -105.53809 | 15756 ft | 268 kts | 49° |
| 2026-04-26 00:57 | 39.11627 | -105.51964 | 15757 ft | 268 kts | 49° |
| 2026-04-26 00:57 | 39.12800 | -105.50138 | 15754 ft | 268 kts | 49° |
| 2026-04-26 00:57 | 39.13984 | -105.48280 | 15777 ft | 268 kts | 49° |
| 2026-04-26 00:57 | 39.15168 | -105.46422 | 15777 ft | 268 kts | 49° |
| 2026-04-26 00:58 | 39.16355 | -105.44554 | 15780 ft | 269 kts | 49° |
| 2026-04-26 00:58 | 39.17539 | -105.42677 | 15784 ft | 270 kts | 50° |
| 2026-04-26 00:58 | 39.18712 | -105.40793 | 15790 ft | 269 kts | 50° |
| 2026-04-26 00:58 | 39.19878 | -105.38957 | 15797 ft | 267 kts | 49° |
| 2026-04-26 00:59 | 39.21057 | -105.37086 | 15801 ft | 268 kts | 50° |
| 2026-04-26 00:59 | 39.22227 | -105.35211 | 15815 ft | 268 kts | 50° |
| 2026-04-26 00:59 | 39.23394 | -105.33341 | 15833 ft | 267 kts | 50° |
| 2026-04-26 00:59 | 39.24568 | -105.31484 | 15826 ft | 268 kts | 49° |
| 2026-04-26 01:00 | 39.25744 | -105.29622 | 15827 ft | 267 kts | 50° |
| 2026-04-26 01:00 | 39.26916 | -105.27744 | 15818 ft | 269 kts | 50° |
| 2026-04-26 01:00 | 39.28027 | -105.25796 | 15809 ft | 270 kts | 62° |
| 2026-04-26 01:00 | 39.28674 | -105.23565 | 15824 ft | 269 kts | 79° |
| 2026-04-26 01:01 | 39.28962 | -105.21186 | 15847 ft | 268 kts | 84° |
| 2026-04-26 01:01 | 39.29245 | -105.18792 | 15841 ft | 270 kts | 83° |
| 2026-04-26 01:01 | 39.29535 | -105.16385 | 15843 ft | 270 kts | 83° |
| 2026-04-26 01:01 | 39.29815 | -105.14038 | 15375 ft | 258 kts | 84° |
| 2026-04-26 01:02 | 39.30081 | -105.11761 | 14819 ft | 243 kts | 84° |
| 2026-04-26 01:02 | 39.30326 | -105.09690 | 14828 ft | 236 kts | 84° |
| 2026-04-26 01:02 | 39.30574 | -105.07546 | 14838 ft | 245 kts | 84° |
| 2026-04-26 01:02 | 39.30832 | -105.05347 | 14852 ft | 251 kts | 84° |
| 2026-04-26 01:03 | 39.31097 | -105.03092 | 14855 ft | 256 kts | 84° |
| 2026-04-26 01:03 | 39.31364 | -105.00812 | 14851 ft | 258 kts | 84° |
| 2026-04-26 01:03 | 39.31602 | -104.99295 | 14852 ft | 261 kts | 78° |
| 2026-04-26 01:03 | 39.32046 | -104.97009 | 14853 ft | 263 kts | 78° |
| 2026-04-26 01:04 | 39.32477 | -104.94706 | 14852 ft | 263 kts | 79° |
| 2026-04-26 01:04 | 39.33035 | -104.91664 | 14846 ft | 264 kts | 77° |
| 2026-04-26 01:04 | 39.33325 | -104.90093 | 14844 ft | 267 kts | 77° |
| 2026-04-26 01:04 | 39.33759 | -104.87751 | 14864 ft | 268 kts | 77° |
| 2026-04-26 01:05 | 39.34186 | -104.85443 | 14868 ft | 268 kts | 77° |
| 2026-04-26 01:05 | 39.34618 | -104.83106 | 14863 ft | 266 kts | 77° |
| 2026-04-26 01:05 | 39.35051 | -104.80770 | 14860 ft | 266 kts | 77° |
| 2026-04-26 01:05 | 39.35483 | -104.78440 | 14858 ft | 266 kts | 77° |
| 2026-04-26 01:06 | 39.35913 | -104.76116 | 14859 ft | 266 kts | 77° |
| 2026-04-26 01:06 | 39.36346 | -104.73779 | 14862 ft | 269 kts | 77° |
| 2026-04-26 01:06 | 39.36783 | -104.71414 | 14868 ft | 271 kts | 77° |
| 2026-04-26 01:06 | 39.37223 | -104.69033 | 14871 ft | 273 kts | 77° |
| 2026-04-26 01:07 | 39.37604 | -104.66661 | 14888 ft | 272 kts | 88° |
| 2026-04-26 01:07 | 39.37245 | -104.64318 | 14864 ft | 263 kts | 119° |
| 2026-04-26 01:07 | 39.36754 | -104.62040 | 14852 ft | 268 kts | 91° |
| 2026-04-26 01:07 | 39.37242 | -104.59731 | 14866 ft | 270 kts | 57° |
| 2026-04-26 01:08 | 39.38570 | -104.58082 | 14900 ft | 264 kts | 23° |
| 2026-04-26 01:08 | 39.40300 | -104.57453 | 14904 ft | 257 kts | 2° |
| 2026-04-26 01:08 | 39.42086 | -104.57218 | 14902 ft | 258 kts | 360° |
| 2026-04-26 01:08 | 39.43852 | -104.57008 | 14539 ft | 246 kts | 360° |
| 2026-04-26 01:09 | 39.45599 | -104.56798 | 13274 ft | 256 kts | 1° |
| 2026-04-26 01:09 | 39.47359 | -104.56591 | 12230 ft | 252 kts | 2° |
| 2026-04-26 01:09 | 39.49107 | -104.56401 | 11135 ft | 251 kts | 0° |
| 2026-04-26 01:09 | 39.50802 | -104.56785 | 10137 ft | 249 kts | 341° |
| 2026-04-26 01:10 | 39.52427 | -104.57549 | 9188 ft | 248 kts | 338° |
| 2026-04-26 01:10 | 39.54015 | -104.58375 | 8258 ft | 244 kts | 339° |
| 2026-04-26 01:10 | 39.55551 | -104.59195 | 7725 ft | 224 kts | 338° |
| 2026-04-26 01:10 | 39.56963 | -104.59950 | 7829 ft | 223 kts | 337° |
| 2026-04-26 01:11 | 39.58431 | -104.60737 | 7980 ft | 230 kts | 337° |
| 2026-04-26 01:11 | 39.59931 | -104.61541 | 8074 ft | 236 kts | 337° |
| 2026-04-26 01:11 | 39.61457 | -104.62361 | 8081 ft | 240 kts | 337° |
| 2026-04-26 01:11 | 39.62990 | -104.63191 | 8082 ft | 242 kts | 335° |
| 2026-04-26 01:12 | 39.64485 | -104.64195 | 8086 ft | 242 kts | 330° |
| 2026-04-26 01:12 | 39.65956 | -104.65274 | 8094 ft | 243 kts | 329° |
| 2026-04-26 01:12 | 39.67482 | -104.66220 | 8073 ft | 242 kts | 347° |
| 2026-04-26 01:12 | 39.69127 | -104.66260 | 8137 ft | 231 kts | 6° |
| 2026-04-26 01:13 | 39.70674 | -104.66179 | 7850 ft | 216 kts | 1° |
| 2026-04-26 01:13 | 39.72083 | -104.66189 | 7534 ft | 191 kts | 3° |
| 2026-04-26 01:13 | 39.73362 | -104.66158 | 7173 ft | 181 kts | 6° |
| 2026-04-26 01:13 | 39.74631 | -104.66147 | 6842 ft | 183 kts | 4° |
| 2026-04-26 01:14 | 39.75884 | -104.66135 | 6559 ft | 179 kts | 6° |
| 2026-04-26 01:14 | 39.77113 | -104.66114 | 6325 ft | 174 kts | 6° |
| 2026-04-26 01:14 | 39.78278 | -104.66115 | 6167 ft | 151 kts | 5° |
| 2026-04-26 01:14 | 39.79297 | -104.66099 | 6068 ft | 146 kts | 6° |
| 2026-04-26 01:15 | 39.80306 | -104.66089 | 5787 ft | 138 kts | 3° |
| 2026-04-26 01:15 | 39.81274 | -104.66083 | 5606 ft | 137 kts | 5° |
| 2026-04-26 01:15 | 39.82240 | -104.66062 | 5462 ft | 140 kts | 5° |
| 2026-04-26 01:15 | 39.83185 | -104.66039 | 5356 ft | 115 kts | 12° |
| 2026-04-26 01:16 | 39.83551 | -104.66038 | 5353 ft | 1 kts | 15° |
| 2026-04-26 01:16 | 39.83589 | -104.66037 | 5354 ft | 14 kts | 1° |
| 2026-04-26 01:16 | 39.83674 | -104.66036 | 5356 ft | 12 kts | 0° |
| 2026-04-26 01:16 | 39.83734 | -104.66037 | 5357 ft | 11 kts | 359° |
| 2026-04-26 01:17 | 39.83830 | -104.66036 | 5357 ft | 16 kts | 1° |
| 2026-04-26 01:17 | 39.83924 | -104.66038 | 5359 ft | 12 kts | 360° |
| 2026-04-26 01:17 | 39.83983 | -104.66037 | 5363 ft | 8 kts | 1° |
| 2026-04-26 01:17 | 39.84041 | -104.66037 | 5366 ft | 9 kts | 0° |
| 2026-04-26 01:18 | 39.84087 | -104.66037 | 5368 ft | 11 kts | 358° |
| 2026-04-26 01:18 | 39.84140 | -104.66076 | 5369 ft | 8 kts | 257° |
| 2026-04-26 01:18 | 39.84102 | -104.66124 | 5366 ft | 0 kts | 217° |
| 2026-04-26 01:18 | 39.84085 | -104.66141 | 5366 ft | 7 kts | 217° |
| 2026-04-26 01:19 | 39.84031 | -104.66193 | 5364 ft | 9 kts | 230° |
| 2026-04-26 01:19 | 39.84022 | -104.66284 | 5367 ft | 7 kts | 268° |
| 2026-04-26 01:19 | 39.84006 | -104.66350 | 5368 ft | 6 kts | 222° |
| 2026-04-26 01:19 | 39.83958 | -104.66375 | 5369 ft | 9 kts | 184° |
| 2026-04-26 01:20 | 39.83924 | -104.66404 | 5370 ft | 6 kts | 241° |